sensor_id;sensor_type;location;lat;lon;timestamp;temperature;humidity
49124;DHT22;48506;48.202;16.274;2023-08-06T00:00:39;17.50;99.90
49124;DHT22;48506;48.202;16.274;2023-08-06T00:03:05;17.50;99.90
49124;DHT22;48506;48.202;16.274;2023-08-06T00:05:31;17.50;99.90
49124;DHT22;48506;48.202;16.274;2023-08-06T00:07:57;17.50;99.90
49124;DHT22;48506;48.202;16.274;2023-08-06T00:10:23;17.50;99.90
49124;DHT22;48506;48.202;16.274;2023-08-06T00:12:49;17.50;99.90
49124;DHT22;48506;48.202;16.274;2023-08-06T00:15:15;17.40;99.90
49124;DHT22;48506;48.202;16.274;2023-08-06T00:17:41;17.40;99.90
49124;DHT22;48506;48.202;16.274;2023-08-06T00:20:07;17.40;99.90
49124;DHT22;48506;48.202;16.274;2023-08-06T00:22:37;17.40;99.90
49124;DHT22;48506;48.202;16.274;2023-08-06T00:25:04;17.40;99.90
49124;DHT22;48506;48.202;16.274;2023-08-06T00:27:31;17.40;99.90
49124;DHT22;48506;48.202;16.274;2023-08-06T00:29:58;17.40;99.90
49124;DHT22;48506;48.202;16.274;2023-08-06T00:32:24;17.50;99.90
49124;DHT22;48506;48.202;16.274;2023-08-06T00:34:50;17.40;99.90
49124;DHT22;48506;48.202;16.274;2023-08-06T00:37:19;17.40;99.90
49124;DHT22;48506;48.202;16.274;2023-08-06T00:39:45;17.40;99.90
49124;DHT22;48506;48.202;16.274;2023-08-06T00:42:11;17.40;99.90
49124;DHT22;48506;48.202;16.274;2023-08-06T00:44:38;17.40;99.90
49124;DHT22;48506;48.202;16.274;2023-08-06T00:47:05;17.30;99.90
49124;DHT22;48506;48.202;16.274;2023-08-06T00:49:31;17.30;99.90
49124;DHT22;48506;48.202;16.274;2023-08-06T00:51:57;17.30;99.90
49124;DHT22;48506;48.202;16.274;2023-08-06T00:54:25;17.30;99.90
49124;DHT22;48506;48.202;16.274;2023-08-06T00:56:52;17.30;99.90
49124;DHT22;48506;48.202;16.274;2023-08-06T00:59:19;17.30;99.90
49124;DHT22;48506;48.202;16.274;2023-08-06T01:01:45;17.30;99.90
49124;DHT22;48506;48.202;16.274;2023-08-06T01:04:12;17.20;99.90
49124;DHT22;48506;48.202;16.274;2023-08-06T01:06:50;17.20;99.90
49124;DHT22;48506;48.202;16.274;2023-08-06T01:15:02;17.20;99.90
49124;DHT22;48506;48.202;16.274;2023-08-06T01:17:31;17.10;99.90
49124;DHT22;48506;48.202;16.274;2023-08-06T01:19:57;17.10;99.90
49124;DHT22;48506;48.202;16.274;2023-08-06T01:22:23;17.10;99.90
49124;DHT22;48506;48.202;16.274;2023-08-06T01:24:50;17.10;99.90
49124;DHT22;48506;48.202;16.274;2023-08-06T01:27:23;17.10;99.90
49124;DHT22;48506;48.202;16.274;2023-08-06T01:30:01;17.10;99.90
49124;DHT22;48506;48.202;16.274;2023-08-06T01:32:30;17.10;99.90
49124;DHT22;48506;48.202;16.274;2023-08-06T01:34:59;17.00;99.90
49124;DHT22;48506;48.202;16.274;2023-08-06T01:37:25;17.00;99.90
49124;DHT22;48506;48.202;16.274;2023-08-06T01:39:52;17.10;99.90
49124;DHT22;48506;48.202;16.274;2023-08-06T01:42:18;17.10;99.90
49124;DHT22;48506;48.202;16.274;2023-08-06T01:44:44;17.10;99.90
49124;DHT22;48506;48.202;16.274;2023-08-06T01:47:10;17.10;99.90
49124;DHT22;48506;48.202;16.274;2023-08-06T01:49:36;17.00;99.90
49124;DHT22;48506;48.202;16.274;2023-08-06T01:52:02;17.00;99.90
49124;DHT22;48506;48.202;16.274;2023-08-06T01:54:28;16.90;99.90
49124;DHT22;48506;48.202;16.274;2023-08-06T01:56:55;16.90;99.90
49124;DHT22;48506;48.202;16.274;2023-08-06T01:59:21;17.00;99.90
49124;DHT22;48506;48.202;16.274;2023-08-06T02:01:46;16.90;99.90
49124;DHT22;48506;48.202;16.274;2023-08-06T02:04:12;16.90;99.90
49124;DHT22;48506;48.202;16.274;2023-08-06T02:06:38;16.90;99.90
49124;DHT22;48506;48.202;16.274;2023-08-06T02:09:04;16.90;99.90
49124;DHT22;48506;48.202;16.274;2023-08-06T02:11:30;16.90;99.90
49124;DHT22;48506;48.202;16.274;2023-08-06T02:13:56;16.90;99.90
49124;DHT22;48506;48.202;16.274;2023-08-06T02:16:21;16.90;99.90
49124;DHT22;48506;48.202;16.274;2023-08-06T02:18:48;16.90;99.90
49124;DHT22;48506;48.202;16.274;2023-08-06T02:21:14;16.80;99.90
49124;DHT22;48506;48.202;16.274;2023-08-06T02:23:40;16.80;99.90
49124;DHT22;48506;48.202;16.274;2023-08-06T02:26:05;16.80;99.90
49124;DHT22;48506;48.202;16.274;2023-08-06T02:28:32;16.80;99.90
49124;DHT22;48506;48.202;16.274;2023-08-06T02:30:58;16.80;99.90
49124;DHT22;48506;48.202;16.274;2023-08-06T02:33:24;16.80;99.90
49124;DHT22;48506;48.202;16.274;2023-08-06T02:35:50;16.80;99.90
49124;DHT22;48506;48.202;16.274;2023-08-06T02:38:16;16.90;99.90
49124;DHT22;48506;48.202;16.274;2023-08-06T02:40:48;16.90;99.90
49124;DHT22;48506;48.202;16.274;2023-08-06T02:43:14;16.90;99.90
49124;DHT22;48506;48.202;16.274;2023-08-06T02:45:40;16.80;99.90
49124;DHT22;48506;48.202;16.274;2023-08-06T02:48:06;16.80;99.90
49124;DHT22;48506;48.202;16.274;2023-08-06T02:50:40;16.80;99.90
49124;DHT22;48506;48.202;16.274;2023-08-06T02:53:07;16.90;99.90
49124;DHT22;48506;48.202;16.274;2023-08-06T02:55:34;16.90;99.90
49124;DHT22;48506;48.202;16.274;2023-08-06T02:58:01;16.90;99.90
49124;DHT22;48506;48.202;16.274;2023-08-06T03:00:27;16.90;99.90
49124;DHT22;48506;48.202;16.274;2023-08-06T03:02:54;16.90;99.90
49124;DHT22;48506;48.202;16.274;2023-08-06T03:05:20;16.90;99.90
49124;DHT22;48506;48.202;16.274;2023-08-06T03:07:46;16.90;99.90
49124;DHT22;48506;48.202;16.274;2023-08-06T03:10:12;16.90;99.90
49124;DHT22;48506;48.202;16.274;2023-08-06T03:12:39;16.90;99.90
49124;DHT22;48506;48.202;16.274;2023-08-06T03:15:05;16.90;99.90
49124;DHT22;48506;48.202;16.274;2023-08-06T03:17:31;16.90;99.90
49124;DHT22;48506;48.202;16.274;2023-08-06T03:19:57;16.80;99.90
49124;DHT22;48506;48.202;16.274;2023-08-06T03:22:23;16.80;99.90
49124;DHT22;48506;48.202;16.274;2023-08-06T03:24:50;16.80;99.90
49124;DHT22;48506;48.202;16.274;2023-08-06T03:27:17;16.90;99.90
49124;DHT22;48506;48.202;16.274;2023-08-06T03:29:43;16.90;99.90
49124;DHT22;48506;48.202;16.274;2023-08-06T03:32:09;16.90;99.90
49124;DHT22;48506;48.202;16.274;2023-08-06T03:34:35;16.90;99.90
49124;DHT22;48506;48.202;16.274;2023-08-06T03:37:00;16.90;99.90
49124;DHT22;48506;48.202;16.274;2023-08-06T03:39:26;16.90;99.90
49124;DHT22;48506;48.202;16.274;2023-08-06T03:41:52;16.90;99.90
49124;DHT22;48506;48.202;16.274;2023-08-06T03:44:18;17.00;99.90
49124;DHT22;48506;48.202;16.274;2023-08-06T03:46:44;16.90;99.90
49124;DHT22;48506;48.202;16.274;2023-08-06T03:49:10;16.90;99.90
49124;DHT22;48506;48.202;16.274;2023-08-06T03:51:35;16.90;99.90
49124;DHT22;48506;48.202;16.274;2023-08-06T03:54:01;16.90;99.90
49124;DHT22;48506;48.202;16.274;2023-08-06T03:56:28;16.90;99.90
49124;DHT22;48506;48.202;16.274;2023-08-06T03:58:54;16.90;99.90
49124;DHT22;48506;48.202;16.274;2023-08-06T04:01:20;16.90;99.90
49124;DHT22;48506;48.202;16.274;2023-08-06T04:03:46;16.90;99.90
49124;DHT22;48506;48.202;16.274;2023-08-06T04:06:12;16.90;99.90
49124;DHT22;48506;48.202;16.274;2023-08-06T04:08:38;17.00;99.90
49124;DHT22;48506;48.202;16.274;2023-08-06T04:11:03;17.00;99.90
49124;DHT22;48506;48.202;16.274;2023-08-06T04:13:29;17.00;99.90
49124;DHT22;48506;48.202;16.274;2023-08-06T04:15:55;17.00;99.90
49124;DHT22;48506;48.202;16.274;2023-08-06T04:18:26;17.00;99.90
49124;DHT22;48506;48.202;16.274;2023-08-06T04:20:52;17.00;99.90
49124;DHT22;48506;48.202;16.274;2023-08-06T04:23:21;17.00;99.90
49124;DHT22;48506;48.202;16.274;2023-08-06T04:25:47;17.10;99.90
49124;DHT22;48506;48.202;16.274;2023-08-06T04:28:13;17.10;99.90
49124;DHT22;48506;48.202;16.274;2023-08-06T04:30:38;17.10;99.90
49124;DHT22;48506;48.202;16.274;2023-08-06T04:33:04;17.20;99.90
49124;DHT22;48506;48.202;16.274;2023-08-06T04:35:30;17.10;99.90
49124;DHT22;48506;48.202;16.274;2023-08-06T04:37:57;17.10;99.90
49124;DHT22;48506;48.202;16.274;2023-08-06T04:40:23;17.10;99.90
49124;DHT22;48506;48.202;16.274;2023-08-06T04:42:49;17.00;99.90
49124;DHT22;48506;48.202;16.274;2023-08-06T04:45:15;17.00;99.90
49124;DHT22;48506;48.202;16.274;2023-08-06T04:47:41;17.10;99.90
49124;DHT22;48506;48.202;16.274;2023-08-06T04:50:08;17.00;99.90
49124;DHT22;48506;48.202;16.274;2023-08-06T04:52:34;17.00;99.90
49124;DHT22;48506;48.202;16.274;2023-08-06T04:55:00;17.00;99.90
49124;DHT22;48506;48.202;16.274;2023-08-06T04:57:26;17.00;99.90
49124;DHT22;48506;48.202;16.274;2023-08-06T04:59:52;17.00;99.90
49124;DHT22;48506;48.202;16.274;2023-08-06T05:02:18;17.00;99.90
49124;DHT22;48506;48.202;16.274;2023-08-06T05:04:44;16.90;99.90
49124;DHT22;48506;48.202;16.274;2023-08-06T05:07:10;16.90;99.90
49124;DHT22;48506;48.202;16.274;2023-08-06T05:09:37;17.00;99.90
49124;DHT22;48506;48.202;16.274;2023-08-06T05:12:04;17.00;99.90
49124;DHT22;48506;48.202;16.274;2023-08-06T05:14:30;17.00;99.90
49124;DHT22;48506;48.202;16.274;2023-08-06T05:16:56;17.00;99.90
49124;DHT22;48506;48.202;16.274;2023-08-06T05:19:22;16.90;99.90
49124;DHT22;48506;48.202;16.274;2023-08-06T05:21:48;17.00;99.90
49124;DHT22;48506;48.202;16.274;2023-08-06T05:24:14;17.00;99.90
49124;DHT22;48506;48.202;16.274;2023-08-06T05:26:40;17.00;99.90
49124;DHT22;48506;48.202;16.274;2023-08-06T05:29:06;17.00;99.90
49124;DHT22;48506;48.202;16.274;2023-08-06T05:31:32;17.00;99.90
49124;DHT22;48506;48.202;16.274;2023-08-06T05:33:57;17.00;99.90
49124;DHT22;48506;48.202;16.274;2023-08-06T05:36:23;17.00;99.90
49124;DHT22;48506;48.202;16.274;2023-08-06T05:38:49;17.10;99.90
49124;DHT22;48506;48.202;16.274;2023-08-06T05:41:15;17.10;99.90
49124;DHT22;48506;48.202;16.274;2023-08-06T05:43:41;17.20;99.90
49124;DHT22;48506;48.202;16.274;2023-08-06T05:46:07;17.20;99.90
49124;DHT22;48506;48.202;16.274;2023-08-06T05:48:33;17.20;99.90
49124;DHT22;48506;48.202;16.274;2023-08-06T05:50:59;17.20;99.90
49124;DHT22;48506;48.202;16.274;2023-08-06T05:53:25;17.30;99.90
49124;DHT22;48506;48.202;16.274;2023-08-06T05:55:51;17.30;99.90
49124;DHT22;48506;48.202;16.274;2023-08-06T05:58:16;17.30;99.90
49124;DHT22;48506;48.202;16.274;2023-08-06T06:00:43;17.30;99.90
49124;DHT22;48506;48.202;16.274;2023-08-06T06:03:09;17.30;99.90
49124;DHT22;48506;48.202;16.274;2023-08-06T06:05:37;17.30;99.90
49124;DHT22;48506;48.202;16.274;2023-08-06T06:08:05;17.30;99.90
49124;DHT22;48506;48.202;16.274;2023-08-06T06:10:31;17.30;99.90
49124;DHT22;48506;48.202;16.274;2023-08-06T06:12:57;17.30;99.90
49124;DHT22;48506;48.202;16.274;2023-08-06T06:15:23;17.30;99.90
49124;DHT22;48506;48.202;16.274;2023-08-06T06:17:49;17.30;99.90
49124;DHT22;48506;48.202;16.274;2023-08-06T06:20:15;17.30;99.90
49124;DHT22;48506;48.202;16.274;2023-08-06T06:22:41;17.30;99.90
49124;DHT22;48506;48.202;16.274;2023-08-06T06:25:07;17.40;99.90
49124;DHT22;48506;48.202;16.274;2023-08-06T06:27:33;17.40;99.90
49124;DHT22;48506;48.202;16.274;2023-08-06T06:30:00;17.40;99.90
49124;DHT22;48506;48.202;16.274;2023-08-06T06:32:26;17.40;99.90
49124;DHT22;48506;48.202;16.274;2023-08-06T06:34:51;17.50;99.90
49124;DHT22;48506;48.202;16.274;2023-08-06T06:37:17;17.50;99.90
49124;DHT22;48506;48.202;16.274;2023-08-06T06:39:43;17.60;99.90
49124;DHT22;48506;48.202;16.274;2023-08-06T06:42:10;17.60;99.90
49124;DHT22;48506;48.202;16.274;2023-08-06T06:44:36;17.60;99.90
49124;DHT22;48506;48.202;16.274;2023-08-06T06:47:03;17.70;99.90
49124;DHT22;48506;48.202;16.274;2023-08-06T06:49:29;17.60;99.90
49124;DHT22;48506;48.202;16.274;2023-08-06T06:51:55;17.70;99.90
49124;DHT22;48506;48.202;16.274;2023-08-06T06:54:21;17.70;99.90
49124;DHT22;48506;48.202;16.274;2023-08-06T06:56:47;17.80;99.90
49124;DHT22;48506;48.202;16.274;2023-08-06T06:59:13;17.80;99.90
49124;DHT22;48506;48.202;16.274;2023-08-06T07:01:39;17.80;99.90
49124;DHT22;48506;48.202;16.274;2023-08-06T07:04:05;17.80;99.90
49124;DHT22;48506;48.202;16.274;2023-08-06T07:06:31;17.80;99.90
49124;DHT22;48506;48.202;16.274;2023-08-06T07:08:57;17.80;99.90
49124;DHT22;48506;48.202;16.274;2023-08-06T07:11:23;17.80;99.90
49124;DHT22;48506;48.202;16.274;2023-08-06T07:13:55;17.80;99.90
49124;DHT22;48506;48.202;16.274;2023-08-06T07:16:22;17.80;99.90
49124;DHT22;48506;48.202;16.274;2023-08-06T07:18:48;17.80;99.90
49124;DHT22;48506;48.202;16.274;2023-08-06T07:21:14;17.80;99.90
49124;DHT22;48506;48.202;16.274;2023-08-06T07:23:40;17.80;99.90
49124;DHT22;48506;48.202;16.274;2023-08-06T07:26:06;17.80;99.90
49124;DHT22;48506;48.202;16.274;2023-08-06T07:28:32;17.80;99.90
49124;DHT22;48506;48.202;16.274;2023-08-06T07:30:58;17.90;99.90
49124;DHT22;48506;48.202;16.274;2023-08-06T07:33:24;18.00;99.90
49124;DHT22;48506;48.202;16.274;2023-08-06T07:35:50;18.00;99.90
49124;DHT22;48506;48.202;16.274;2023-08-06T07:38:16;18.00;99.90
49124;DHT22;48506;48.202;16.274;2023-08-06T07:40:42;18.00;99.90
49124;DHT22;48506;48.202;16.274;2023-08-06T07:43:08;18.10;99.90
49124;DHT22;48506;48.202;16.274;2023-08-06T07:45:35;18.00;99.90
49124;DHT22;48506;48.202;16.274;2023-08-06T07:48:02;18.10;99.90
49124;DHT22;48506;48.202;16.274;2023-08-06T07:50:28;18.10;99.90
49124;DHT22;48506;48.202;16.274;2023-08-06T07:52:54;18.10;99.90
49124;DHT22;48506;48.202;16.274;2023-08-06T07:55:20;18.20;99.90
49124;DHT22;48506;48.202;16.274;2023-08-06T07:57:46;18.20;99.90
49124;DHT22;48506;48.202;16.274;2023-08-06T08:00:12;18.20;99.90
49124;DHT22;48506;48.202;16.274;2023-08-06T08:02:38;18.30;99.90
49124;DHT22;48506;48.202;16.274;2023-08-06T08:05:05;18.30;99.90
49124;DHT22;48506;48.202;16.274;2023-08-06T08:07:33;18.30;99.90
49124;DHT22;48506;48.202;16.274;2023-08-06T08:09:59;18.40;99.90
49124;DHT22;48506;48.202;16.274;2023-08-06T08:12:25;18.30;99.90
49124;DHT22;48506;48.202;16.274;2023-08-06T08:14:51;18.20;99.90
49124;DHT22;48506;48.202;16.274;2023-08-06T08:17:17;18.20;99.90
49124;DHT22;48506;48.202;16.274;2023-08-06T08:19:43;18.20;99.90
49124;DHT22;48506;48.202;16.274;2023-08-06T08:22:09;18.20;99.90
49124;DHT22;48506;48.202;16.274;2023-08-06T08:24:35;18.20;99.90
49124;DHT22;48506;48.202;16.274;2023-08-06T08:27:01;18.20;99.90
49124;DHT22;48506;48.202;16.274;2023-08-06T08:29:27;18.20;99.90
49124;DHT22;48506;48.202;16.274;2023-08-06T08:31:53;18.20;99.90
49124;DHT22;48506;48.202;16.274;2023-08-06T08:34:19;18.20;99.90
49124;DHT22;48506;48.202;16.274;2023-08-06T08:36:45;18.10;99.90
49124;DHT22;48506;48.202;16.274;2023-08-06T08:39:15;18.00;99.90
49124;DHT22;48506;48.202;16.274;2023-08-06T08:41:42;18.10;99.90
49124;DHT22;48506;48.202;16.274;2023-08-06T08:44:09;18.10;99.90
49124;DHT22;48506;48.202;16.274;2023-08-06T08:46:40;18.20;99.90
49124;DHT22;48506;48.202;16.274;2023-08-06T08:49:06;18.40;99.90
49124;DHT22;48506;48.202;16.274;2023-08-06T08:51:35;18.50;99.90
49124;DHT22;48506;48.202;16.274;2023-08-06T08:54:07;18.50;99.90
49124;DHT22;48506;48.202;16.274;2023-08-06T08:56:35;18.50;99.90
49124;DHT22;48506;48.202;16.274;2023-08-06T08:59:01;18.40;99.90
49124;DHT22;48506;48.202;16.274;2023-08-06T09:01:27;18.50;99.90
49124;DHT22;48506;48.202;16.274;2023-08-06T09:03:55;18.50;99.90
49124;DHT22;48506;48.202;16.274;2023-08-06T09:06:23;18.40;99.90
49124;DHT22;48506;48.202;16.274;2023-08-06T09:09:15;18.30;99.90
49124;DHT22;48506;48.202;16.274;2023-08-06T09:11:44;18.10;99.90
49124;DHT22;48506;48.202;16.274;2023-08-06T09:14:11;18.10;99.90
49124;DHT22;48506;48.202;16.274;2023-08-06T09:16:38;18.10;99.90
49124;DHT22;48506;48.202;16.274;2023-08-06T09:19:11;18.00;99.90
49124;DHT22;48506;48.202;16.274;2023-08-06T09:21:42;18.00;99.90
49124;DHT22;48506;48.202;16.274;2023-08-06T09:24:12;18.00;99.90
49124;DHT22;48506;48.202;16.274;2023-08-06T09:26:39;17.90;99.90
49124;DHT22;48506;48.202;16.274;2023-08-06T09:29:06;17.90;99.90
49124;DHT22;48506;48.202;16.274;2023-08-06T09:31:58;17.80;99.90
49124;DHT22;48506;48.202;16.274;2023-08-06T09:34:24;17.70;99.90
49124;DHT22;48506;48.202;16.274;2023-08-06T09:36:52;17.70;99.90
49124;DHT22;48506;48.202;16.274;2023-08-06T09:39:26;17.80;99.90
49124;DHT22;48506;48.202;16.274;2023-08-06T09:42:01;17.70;99.90
49124;DHT22;48506;48.202;16.274;2023-08-06T09:44:30;17.70;99.90
49124;DHT22;48506;48.202;16.274;2023-08-06T09:46:58;17.70;99.90
49124;DHT22;48506;48.202;16.274;2023-08-06T09:49:27;17.70;99.90
49124;DHT22;48506;48.202;16.274;2023-08-06T09:51:53;17.70;99.90
49124;DHT22;48506;48.202;16.274;2023-08-06T09:54:25;17.70;99.90
49124;DHT22;48506;48.202;16.274;2023-08-06T09:56:53;17.70;99.90
49124;DHT22;48506;48.202;16.274;2023-08-06T09:59:20;17.80;99.90
49124;DHT22;48506;48.202;16.274;2023-08-06T10:01:47;17.90;99.90
49124;DHT22;48506;48.202;16.274;2023-08-06T10:04:15;17.90;99.90
49124;DHT22;48506;48.202;16.274;2023-08-06T10:06:47;18.00;99.90
49124;DHT22;48506;48.202;16.274;2023-08-06T10:09:16;18.10;99.90
49124;DHT22;48506;48.202;16.274;2023-08-06T10:11:52;18.10;99.90
49124;DHT22;48506;48.202;16.274;2023-08-06T10:14:30;18.10;99.90
49124;DHT22;48506;48.202;16.274;2023-08-06T10:16:58;18.20;99.90
49124;DHT22;48506;48.202;16.274;2023-08-06T10:19:26;18.20;99.90
49124;DHT22;48506;48.202;16.274;2023-08-06T10:22:11;18.30;99.90
49124;DHT22;48506;48.202;16.274;2023-08-06T10:24:50;18.30;99.90
49124;DHT22;48506;48.202;16.274;2023-08-06T10:30:29;18.50;99.90
49124;DHT22;48506;48.202;16.274;2023-08-06T10:32:59;18.50;99.90
49124;DHT22;48506;48.202;16.274;2023-08-06T10:35:48;18.60;99.90
49124;DHT22;48506;48.202;16.274;2023-08-06T10:38:22;18.70;99.90
49124;DHT22;48506;48.202;16.274;2023-08-06T10:43:27;18.70;99.90
49124;DHT22;48506;48.202;16.274;2023-08-06T10:45:54;18.70;99.90
49124;DHT22;48506;48.202;16.274;2023-08-06T10:48:36;18.70;99.90
49124;DHT22;48506;48.202;16.274;2023-08-06T10:51:03;18.80;99.90
49124;DHT22;48506;48.202;16.274;2023-08-06T10:53:31;18.80;99.90
49124;DHT22;48506;48.202;16.274;2023-08-06T10:55:57;18.80;99.90
49124;DHT22;48506;48.202;16.274;2023-08-06T10:58:23;18.80;99.90
49124;DHT22;48506;48.202;16.274;2023-08-06T11:00:50;18.70;99.90
49124;DHT22;48506;48.202;16.274;2023-08-06T11:03:16;18.60;99.90
49124;DHT22;48506;48.202;16.274;2023-08-06T11:05:49;18.60;99.90
49124;DHT22;48506;48.202;16.274;2023-08-06T11:08:29;18.60;99.90
49124;DHT22;48506;48.202;16.274;2023-08-06T11:11:12;18.70;99.90
49124;DHT22;48506;48.202;16.274;2023-08-06T11:13:46;18.80;99.90
49124;DHT22;48506;48.202;16.274;2023-08-06T11:16:23;18.80;99.90
49124;DHT22;48506;48.202;16.274;2023-08-06T11:18:52;18.70;99.90
49124;DHT22;48506;48.202;16.274;2023-08-06T11:21:20;18.60;99.90
49124;DHT22;48506;48.202;16.274;2023-08-06T11:23:46;18.50;99.90
49124;DHT22;48506;48.202;16.274;2023-08-06T11:26:13;18.50;99.90
49124;DHT22;48506;48.202;16.274;2023-08-06T11:28:43;18.40;99.90
49124;DHT22;48506;48.202;16.274;2023-08-06T11:31:19;18.30;99.90
49124;DHT22;48506;48.202;16.274;2023-08-06T11:33:45;18.30;99.90
49124;DHT22;48506;48.202;16.274;2023-08-06T11:36:12;18.30;99.90
49124;DHT22;48506;48.202;16.274;2023-08-06T11:38:38;18.20;99.90
49124;DHT22;48506;48.202;16.274;2023-08-06T11:41:06;18.20;99.90
49124;DHT22;48506;48.202;16.274;2023-08-06T11:43:32;18.20;99.90
49124;DHT22;48506;48.202;16.274;2023-08-06T11:45:58;18.10;99.90
49124;DHT22;48506;48.202;16.274;2023-08-06T11:48:25;18.00;99.90
49124;DHT22;48506;48.202;16.274;2023-08-06T11:50:54;18.00;99.90
49124;DHT22;48506;48.202;16.274;2023-08-06T11:53:27;18.00;99.90
49124;DHT22;48506;48.202;16.274;2023-08-06T11:55:54;18.00;99.90
49124;DHT22;48506;48.202;16.274;2023-08-06T11:58:20;18.00;99.90
49124;DHT22;48506;48.202;16.274;2023-08-06T12:00:46;17.90;99.90
49124;DHT22;48506;48.202;16.274;2023-08-06T12:03:12;17.90;99.90
49124;DHT22;48506;48.202;16.274;2023-08-06T12:05:38;17.90;99.90
49124;DHT22;48506;48.202;16.274;2023-08-06T12:08:05;17.90;99.90
49124;DHT22;48506;48.202;16.274;2023-08-06T12:10:32;17.90;99.90
49124;DHT22;48506;48.202;16.274;2023-08-06T12:12:58;17.90;99.90
49124;DHT22;48506;48.202;16.274;2023-08-06T12:15:24;17.90;99.90
49124;DHT22;48506;48.202;16.274;2023-08-06T12:17:50;17.90;99.90
49124;DHT22;48506;48.202;16.274;2023-08-06T12:20:16;17.90;99.90
49124;DHT22;48506;48.202;16.274;2023-08-06T12:22:42;18.00;99.90
49124;DHT22;48506;48.202;16.274;2023-08-06T12:25:10;18.00;99.90
49124;DHT22;48506;48.202;16.274;2023-08-06T12:27:44;18.00;99.90
49124;DHT22;48506;48.202;16.274;2023-08-06T12:30:11;17.90;99.90
49124;DHT22;48506;48.202;16.274;2023-08-06T12:32:39;18.00;99.90
49124;DHT22;48506;48.202;16.274;2023-08-06T12:35:05;18.00;99.90
49124;DHT22;48506;48.202;16.274;2023-08-06T12:37:33;18.10;99.90
49124;DHT22;48506;48.202;16.274;2023-08-06T12:40:00;18.10;99.90
49124;DHT22;48506;48.202;16.274;2023-08-06T12:42:26;18.20;99.90
49124;DHT22;48506;48.202;16.274;2023-08-06T12:44:52;18.20;99.90
49124;DHT22;48506;48.202;16.274;2023-08-06T12:47:18;18.20;99.90
49124;DHT22;48506;48.202;16.274;2023-08-06T12:49:46;18.20;99.90
49124;DHT22;48506;48.202;16.274;2023-08-06T12:52:12;18.30;99.90
49124;DHT22;48506;48.202;16.274;2023-08-06T12:54:40;18.40;99.90
49124;DHT22;48506;48.202;16.274;2023-08-06T12:57:06;18.40;99.90
49124;DHT22;48506;48.202;16.274;2023-08-06T12:59:33;18.50;99.90
49124;DHT22;48506;48.202;16.274;2023-08-06T13:02:03;18.60;99.90
49124;DHT22;48506;48.202;16.274;2023-08-06T13:04:29;18.60;99.90
49124;DHT22;48506;48.202;16.274;2023-08-06T13:06:56;18.60;99.90
49124;DHT22;48506;48.202;16.274;2023-08-06T13:09:23;18.70;99.90
49124;DHT22;48506;48.202;16.274;2023-08-06T13:11:50;18.60;99.90
49124;DHT22;48506;48.202;16.274;2023-08-06T13:14:17;18.70;99.90
49124;DHT22;48506;48.202;16.274;2023-08-06T13:16:44;18.70;99.90
49124;DHT22;48506;48.202;16.274;2023-08-06T13:19:11;18.80;99.90
49124;DHT22;48506;48.202;16.274;2023-08-06T13:24:16;18.90;99.90
49124;DHT22;48506;48.202;16.274;2023-08-06T13:26:42;18.90;99.90
49124;DHT22;48506;48.202;16.274;2023-08-06T13:29:10;19.00;99.90
49124;DHT22;48506;48.202;16.274;2023-08-06T13:31:37;19.10;99.90
49124;DHT22;48506;48.202;16.274;2023-08-06T13:34:03;19.10;99.90
49124;DHT22;48506;48.202;16.274;2023-08-06T13:36:31;19.20;99.90
49124;DHT22;48506;48.202;16.274;2023-08-06T13:38:57;19.30;99.90
49124;DHT22;48506;48.202;16.274;2023-08-06T13:41:24;19.30;99.90
49124;DHT22;48506;48.202;16.274;2023-08-06T13:43:50;19.40;99.90
49124;DHT22;48506;48.202;16.274;2023-08-06T13:46:18;19.50;99.90
49124;DHT22;48506;48.202;16.274;2023-08-06T13:48:47;19.50;99.90
49124;DHT22;48506;48.202;16.274;2023-08-06T13:51:20;19.50;99.90
49124;DHT22;48506;48.202;16.274;2023-08-06T13:53:46;19.60;99.90
49124;DHT22;48506;48.202;16.274;2023-08-06T13:56:12;19.70;99.90
49124;DHT22;48506;48.202;16.274;2023-08-06T13:58:46;19.70;99.90
49124;DHT22;48506;48.202;16.274;2023-08-06T14:01:13;19.70;99.90
49124;DHT22;48506;48.202;16.274;2023-08-06T14:03:43;19.60;99.90
49124;DHT22;48506;48.202;16.274;2023-08-06T14:06:09;19.70;99.90
49124;DHT22;48506;48.202;16.274;2023-08-06T14:08:36;19.60;99.90
49124;DHT22;48506;48.202;16.274;2023-08-06T14:11:05;19.60;99.90
49124;DHT22;48506;48.202;16.274;2023-08-06T14:13:32;19.60;99.80
49124;DHT22;48506;48.202;16.274;2023-08-06T14:15:58;19.60;99.90
49124;DHT22;48506;48.202;16.274;2023-08-06T14:18:25;19.70;99.90
49124;DHT22;48506;48.202;16.274;2023-08-06T14:20:51;19.70;99.90
49124;DHT22;48506;48.202;16.274;2023-08-06T14:23:18;19.70;99.90
49124;DHT22;48506;48.202;16.274;2023-08-06T14:25:45;19.70;99.70
49124;DHT22;48506;48.202;16.274;2023-08-06T14:28:11;19.60;99.50
49124;DHT22;48506;48.202;16.274;2023-08-06T14:30:38;19.60;99.90
49124;DHT22;48506;48.202;16.274;2023-08-06T14:33:05;19.50;98.30
49124;DHT22;48506;48.202;16.274;2023-08-06T14:35:32;19.40;99.00
49124;DHT22;48506;48.202;16.274;2023-08-06T14:37:59;19.20;99.60
49124;DHT22;48506;48.202;16.274;2023-08-06T14:40:26;19.20;99.70
49124;DHT22;48506;48.202;16.274;2023-08-06T14:42:54;19.20;99.60
49124;DHT22;48506;48.202;16.274;2023-08-06T14:45:20;19.10;99.50
49124;DHT22;48506;48.202;16.274;2023-08-06T14:47:47;19.10;99.20
49124;DHT22;48506;48.202;16.274;2023-08-06T14:50:13;19.10;99.90
49124;DHT22;48506;48.202;16.274;2023-08-06T14:52:40;19.10;99.50
49124;DHT22;48506;48.202;16.274;2023-08-06T14:55:07;19.20;99.90
49124;DHT22;48506;48.202;16.274;2023-08-06T14:57:34;19.30;99.90
49124;DHT22;48506;48.202;16.274;2023-08-06T15:00:01;19.30;99.80
49124;DHT22;48506;48.202;16.274;2023-08-06T15:02:28;19.20;99.50
49124;DHT22;48506;48.202;16.274;2023-08-06T15:04:55;19.20;99.60
49124;DHT22;48506;48.202;16.274;2023-08-06T15:07:21;19.20;99.20
49124;DHT22;48506;48.202;16.274;2023-08-06T15:09:48;19.20;99.20
49124;DHT22;48506;48.202;16.274;2023-08-06T15:12:14;19.20;98.70
49124;DHT22;48506;48.202;16.274;2023-08-06T15:14:41;19.20;99.10
49124;DHT22;48506;48.202;16.274;2023-08-06T15:17:07;19.20;98.60
49124;DHT22;48506;48.202;16.274;2023-08-06T15:19:33;19.10;98.50
49124;DHT22;48506;48.202;16.274;2023-08-06T15:22:00;19.10;98.90
49124;DHT22;48506;48.202;16.274;2023-08-06T15:24:27;19.00;98.20
49124;DHT22;48506;48.202;16.274;2023-08-06T15:26:54;19.00;98.90
49124;DHT22;48506;48.202;16.274;2023-08-06T15:29:21;19.00;98.80